Time;durP1;ratioP1;P1;durP2;ratioP2;P2;SDS_P1;SDS_P2;PMS_P1;PMS_P2;Temp;Humidity;BMP_temperature;BMP_pressure;BME280_temperature;BME280_humidity;BME280_pressure;Samples;Min_cycle;Max_cycle;Signal;HPM_P1;HPM_P2
2022/11/08 00:01:37;;;;;;;14.00;4.20;;;;;;;11.77;99.89;100901.59;5046671;28;20120;-66
2022/11/08 00:04:08;;;;;;;12.10;3.88;;;;;;;11.74;99.83;100900.16;5047719;28;20032;-65
2022/11/08 00:14:45;;;;;;;10.15;4.53;;;;;;;11.74;100.00;100897.41;5030342;28;20160;-66
2022/11/08 00:17:13;;;;;;;12.10;4.50;;;;;;;11.72;100.00;100902.31;5028290;28;20037;-67
2022/11/08 00:19:39;;;;;;;11.13;4.32;;;;;;;11.70;100.00;100898.94;5028933;28;20056;-66
2022/11/08 00:22:04;;;;;;;16.08;4.15;;;;;;;11.64;100.00;100892.47;5027294;28;20033;-65
2022/11/08 00:24:29;;;;;;;14.32;4.22;;;;;;;11.63;100.00;100893.56;5027883;28;20243;-64
2022/11/08 00:26:55;;;;;;;13.20;4.20;;;;;;;11.62;100.00;100893.81;5029304;28;20022;-64
2022/11/08 00:29:20;;;;;;;14.00;4.30;;;;;;;11.58;100.00;100889.84;5022911;28;20045;-64
2022/11/08 00:31:45;;;;;;;14.43;4.40;;;;;;;11.60;100.00;100894.00;5028505;28;20676;-64
2022/11/08 00:34:11;;;;;;;12.77;4.70;;;;;;;11.60;100.00;100888.50;5026988;28;20026;-65
2022/11/08 00:36:36;;;;;;;11.48;4.15;;;;;;;11.59;100.00;100883.25;5028404;28;20385;-65
2022/11/08 00:39:01;;;;;;;12.60;3.70;;;;;;;11.53;100.00;100889.72;5027625;28;20030;-65
2022/11/08 00:41:27;;;;;;;11.85;3.97;;;;;;;11.50;100.00;100884.66;5028596;28;20068;-66
2022/11/08 00:43:52;;;;;;;15.13;4.53;;;;;;;11.48;100.00;100881.34;5027767;28;20547;-64
2022/11/08 00:46:17;;;;;;;12.95;5.05;;;;;;;11.48;100.00;100881.34;5028620;28;20029;-64
2022/11/08 00:48:43;;;;;;;13.20;4.40;;;;;;;11.44;100.00;100878.22;5028902;28;20061;-66
2022/11/08 00:51:10;;;;;;;12.23;3.95;;;;;;;11.41;100.00;100878.69;5026903;28;20499;-64
2022/11/08 00:53:37;;;;;;;15.05;4.28;;;;;;;11.38;100.00;100879.16;5027140;28;20028;-64
2022/11/08 00:56:05;;;;;;;13.32;4.15;;;;;;;11.38;100.00;100870.91;5028701;28;20045;-64
2022/11/08 00:58:31;;;;;;;13.65;4.32;;;;;;;11.32;100.00;100872.69;5027540;28;20133;-64
2022/11/08 01:00:57;;;;;;;13.70;4.53;;;;;;;11.30;100.00;100876.72;5027117;28;20111;-64
2022/11/08 01:03:23;;;;;;;15.65;4.55;;;;;;;11.25;100.00;100863.69;5024894;28;20656;-66
2022/11/08 01:05:51;;;;;;;12.82;4.80;;;;;;;11.21;100.00;100864.41;5027780;28;20095;-68
2022/11/08 01:08:18;;;;;;;13.10;4.13;;;;;;;11.12;100.00;100864.75;5027624;28;20551;-65
2022/11/08 01:10:46;;;;;;;12.70;4.10;;;;;;;11.06;100.00;100867.59;5028793;28;20508;-67
2022/11/08 01:13:12;;;;;;;13.82;4.78;;;;;;;10.99;100.00;100872.31;5033193;28;20040;-64
2022/11/08 01:15:41;;;;;;;10.70;4.50;;;;;;;10.93;100.00;100868.59;5056244;28;20027;-64
2022/11/08 01:18:08;;;;;;;12.90;4.45;;;;;;;10.88;100.00;100862.97;5047785;28;20033;-65
2022/11/08 01:20:37;;;;;;;15.38;5.22;;;;;;;10.86;100.00;100862.38;5045840;28;20029;-66
2022/11/08 01:23:02;;;;;;;13.23;4.13;;;;;;;10.78;100.00;100876.41;5047449;28;20028;-64
2022/11/08 01:25:27;;;;;;;15.30;4.65;;;;;;;10.73;100.00;100870.78;5047871;28;20028;-64
2022/11/08 01:27:52;;;;;;;14.27;4.35;;;;;;;10.68;100.00;100857.72;5047140;28;20029;-65
2022/11/08 01:30:18;;;;;;;14.15;5.15;;;;;;;10.70;100.00;100863.00;5046289;28;20384;-64
2022/11/08 01:32:43;;;;;;;15.63;4.82;;;;;;;10.65;100.00;100852.72;5047154;28;20039;-66
2022/11/08 01:35:08;;;;;;;16.38;5.50;;;;;;;10.66;100.00;100859.88;5047281;28;20487;-67
2022/11/08 01:37:33;;;;;;;19.38;5.95;;;;;;;10.68;100.00;100852.25;5046329;28;20060;-64
2022/11/08 01:39:59;;;;;;;10.02;4.88;;;;;;;10.62;100.00;100844.94;5047285;28;20640;-65
2022/11/08 01:42:28;;;;;;;15.00;5.63;;;;;;;10.64;100.00;100842.78;5050209;28;20072;-68
2022/11/08 01:45:05;;;;;;;19.45;6.82;;;;;;;10.75;100.00;100842.03;5054688;28;20483;-64
2022/11/08 01:47:31;;;;;;;13.52;5.25;;;;;;;10.64;100.00;100829.91;5027760;28;20056;-64
2022/11/08 01:50:01;;;;;;;18.00;6.15;;;;;;;10.68;100.00;100833.00;5030902;28;20052;-64
2022/11/08 01:52:38;;;;;;;13.50;5.30;;;;;;;10.67;100.00;100820.34;5047395;28;20041;-65
2022/11/08 01:55:07;;;;;;;13.18;5.40;;;;;;;10.66;100.00;100824.19;5046555;28;20116;-66
2022/11/08 01:57:38;;;;;;;20.52;6.30;;;;;;;10.65;100.00;100814.25;5037707;28;20123;-64
2022/11/08 02:00:07;;;;;;;17.88;5.65;;;;;;;10.66;100.00;100810.44;5045235;28;20041;-67
2022/11/08 02:02:35;;;;;;;14.73;5.47;;;;;;;10.68;100.00;100801.97;5046079;28;20033;-65
2022/11/08 02:05:05;;;;;;;15.38;5.80;;;;;;;10.69;100.00;100798.97;5091123;22;20388;-63
2022/11/08 02:07:33;;;;;;;14.68;5.43;;;;;;;10.69;100.00;100801.72;4981137;28;20084;-63
2022/11/08 02:09:59;;;;;;;13.55;4.97;;;;;;;10.72;100.00;100794.94;4986373;28;20066;-62
2022/11/08 02:12:26;;;;;;;15.68;5.43;;;;;;;10.77;100.00;100797.81;4986188;28;20041;-62
2022/11/08 02:14:51;;;;;;;16.40;5.45;;;;;;;10.78;100.00;100781.09;4985680;28;20038;-63
2022/11/08 02:17:16;;;;;;;16.58;4.88;;;;;;;10.76;100.00;100782.41;4986722;28;20452;-63
2022/11/08 02:19:48;;;;;;;14.30;4.95;;;;;;;10.79;100.00;100780.03;4986703;28;20460;-63
2022/11/08 02:22:31;;;;;;;17.40;5.78;;;;;;;10.83;100.00;100786.72;4985494;28;20032;-64
2022/11/08 02:24:59;;;;;;;13.30;5.38;;;;;;;10.81;100.00;100779.81;4987304;28;20026;-63
2022/11/08 02:27:25;;;;;;;13.65;5.15;;;;;;;10.83;100.00;100773.00;4987168;28;20464;-62
2022/11/08 02:29:54;;;;;;;13.55;4.63;;;;;;;10.90;100.00;100771.00;4985166;28;20027;-64
2022/11/08 02:32:20;;;;;;;12.55;4.80;;;;;;;10.89;100.00;100769.28;4984869;28;20026;-64
2022/11/08 02:34:54;;;;;;;10.85;4.30;;;;;;;10.94;100.00;100765.00;4987729;28;20041;-63
2022/11/08 02:37:21;;;;;;;14.75;4.65;;;;;;;10.95;100.00;100769.44;4984643;28;20172;-63
2022/11/08 02:39:47;;;;;;;18.05;4.78;;;;;;;10.93;100.00;100755.09;4984586;28;20048;-63
2022/11/08 02:42:14;;;;;;;13.70;4.50;;;;;;;10.89;100.00;100757.47;4983666;28;20057;-62
2022/11/08 02:44:39;;;;;;;15.50;4.45;;;;;;;10.94;100.00;100754.03;4986267;28;20023;-63
2022/11/08 02:47:05;;;;;;;12.73;5.15;;;;;;;10.96;100.00;100749.16;5016685;28;20069;-64
2022/11/08 02:49:30;;;;;;;14.60;4.75;;;;;;;10.93;100.00;100752.34;4986088;28;20030;-62
2022/11/08 02:51:55;;;;;;;13.15;5.35;;;;;;;10.94;100.00;100743.03;4986727;28;20053;-65
2022/11/08 02:54:21;;;;;;;14.88;5.03;;;;;;;10.95;100.00;100740.06;4986495;28;20073;-66
2022/11/08 02:56:46;;;;;;;13.55;4.50;;;;;;;10.90;100.00;100735.28;4989063;28;20038;-63
2022/11/08 02:59:11;;;;;;;15.52;5.18;;;;;;;10.90;100.00;100732.53;4989755;28;20149;-62
2022/11/08 03:01:36;;;;;;;14.82;4.40;;;;;;;10.82;100.00;100743.84;4989784;28;20026;-62
2022/11/08 03:04:02;;;;;;;13.35;4.90;;;;;;;10.81;100.00;100730.34;4990409;28;20066;-62
2022/11/08 03:06:27;;;;;;;13.05;4.90;;;;;;;10.75;100.00;100723.91;4989089;28;20054;-62
2022/11/08 03:08:52;;;;;;;20.50;5.38;;;;;;;10.68;100.00;100717.66;4988900;28;20026;-63
2022/11/08 03:11:17;;;;;;;16.23;5.43;;;;;;;10.60;100.00;100716.09;4990322;28;20041;-66
2022/11/08 03:13:43;;;;;;;14.25;5.68;;;;;;;10.53;100.00;100709.00;4989829;28;20041;-65
2022/11/08 03:16:08;;;;;;;17.35;5.50;;;;;;;10.49;100.00;100708.66;4990259;28;20053;-62
2022/11/08 03:18:34;;;;;;;17.52;5.88;;;;;;;10.48;100.00;100701.47;4989672;28;20065;-63
2022/11/08 03:21:02;;;;;;;16.50;6.40;;;;;;;10.43;100.00;100704.06;4989999;28;20030;-63
2022/11/08 03:23:28;;;;;;;17.63;5.90;;;;;;;10.36;100.00;100698.69;4989318;28;20040;-63
2022/11/08 03:25:53;;;;;;;17.05;5.75;;;;;;;10.37;100.00;100694.88;4989265;28;20109;-66
2022/11/08 03:28:18;;;;;;;15.05;5.43;;;;;;;10.37;100.00;100691.28;4990062;28;20157;-65
2022/11/08 03:30:44;;;;;;;15.75;5.68;;;;;;;10.35;100.00;100679.72;4989529;28;20468;-63
2022/11/08 03:33:09;;;;;;;12.60;5.82;;;;;;;10.33;100.00;100681.84;4989819;28;20034;-66
2022/11/08 03:35:34;;;;;;;16.58;5.40;;;;;;;10.30;100.00;100676.84;4989746;28;20417;-63
2022/11/08 03:37:59;;;;;;;14.30;5.25;;;;;;;10.30;100.00;100672.19;4987954;28;20047;-63
2022/11/08 03:40:26;;;;;;;17.73;5.78;;;;;;;10.30;100.00;100669.44;4988946;28;20037;-62
2022/11/08 03:42:51;;;;;;;18.50;5.90;;;;;;;10.30;100.00;100663.09;4989508;28;20041;-63
2022/11/08 03:45:16;;;;;;;12.85;4.93;;;;;;;10.25;100.00;100652.00;4989389;28;20035;-62
2022/11/08 03:47:44;;;;;;;13.98;5.50;;;;;;;10.22;100.00;100647.75;4989720;28;20485;-63
2022/11/08 03:50:10;;;;;;;15.93;5.10;;;;;;;10.21;100.00;100646.09;4989265;28;20022;-63
2022/11/08 03:52:49;;;;;;;14.88;5.10;;;;;;;10.25;100.00;100635.53;4989346;28;20029;-62
2022/11/08 03:55:16;;;;;;;13.27;5.10;;;;;;;10.24;100.00;100633.81;4989882;28;20032;-63
2022/11/08 03:57:42;;;;;;;15.38;5.75;;;;;;;10.29;100.00;100634.81;4989760;28;20042;-63
2022/11/08 04:00:10;;;;;;;11.73;5.32;;;;;;;10.36;100.00;100629.22;5003716;28;20117;-66
2022/11/08 04:02:36;;;;;;;;;;;;;;;10.44;100.00;100628.03;4989427;28;20126;-63
2022/11/08 04:05:01;;;;;;;12.90;4.93;;;;;;;10.45;100.00;100614.09;4988875;28;20004;-63
2022/11/08 04:07:27;;;;;;;12.60;5.10;;;;;;;10.43;100.00;100621.72;4988516;28;20365;-66
2022/11/08 04:09:55;;;;;;;13.60;5.30;;;;;;;10.37;100.00;100611.66;4988950;28;20030;-62
2022/11/08 04:15:15;;;;;;;15.30;5.40;;;;;;;10.43;100.00;100604.41;4989165;28;19976;-63
2022/11/08 04:23:10;;;;;;;13.68;5.28;;;;;;;10.36;100.00;100597.13;4987605;28;20093;-67
2022/11/08 04:25:35;;;;;;;15.93;5.75;;;;;;;10.34;100.00;100599.28;4989740;28;20018;-65
2022/11/08 04:28:01;;;;;;;13.45;5.28;;;;;;;10.38;100.00;100586.72;5021047;28;20034;-62
2022/11/08 04:30:26;;;;;;;13.02;5.05;;;;;;;10.43;100.00;100577.78;4987819;28;20109;-63
2022/11/08 04:32:51;;;;;;;13.88;4.90;;;;;;;10.55;100.00;100580.56;4987573;28;20037;-65
2022/11/08 04:35:17;;;;;;;12.02;5.05;;;;;;;10.50;100.00;100583.19;4989224;28;20026;-63
2022/11/08 04:37:42;;;;;;;12.45;4.15;;;;;;;10.48;100.00;100574.31;4987792;28;20039;-63
2022/11/08 04:40:08;;;;;;;12.55;4.43;;;;;;;10.48;99.72;100572.41;4986547;28;20543;-63
2022/11/08 04:42:33;;;;;;;10.98;5.03;;;;;;;10.42;100.00;100576.09;4987881;28;20089;-63
2022/11/08 04:44:59;;;;;;;10.45;4.30;;;;;;;10.38;100.00;100572.16;4988612;28;20042;-62
2022/11/08 04:47:24;;;;;;;11.88;4.50;;;;;;;10.41;99.41;100574.44;4987454;28;20018;-64
2022/11/08 04:49:49;;;;;;;10.13;4.22;;;;;;;10.41;99.36;100559.88;4989337;28;20049;-63
2022/11/08 04:52:15;;;;;;;11.52;4.60;;;;;;;10.37;99.56;100565.84;4988816;28;20027;-62
2022/11/08 04:54:43;;;;;;;13.30;4.80;;;;;;;10.40;98.73;100559.06;4986687;28;20617;-64
2022/11/08 04:57:09;;;;;;;9.50;4.40;;;;;;;10.39;98.95;100557.34;4987482;28;20038;-63
2022/11/08 04:59:35;;;;;;;13.27;4.63;;;;;;;10.34;98.89;100549.84;4988221;28;20040;-63
2022/11/08 05:02:00;;;;;;;10.63;4.13;;;;;;;10.30;98.90;100539.59;4987951;28;20026;-63
2022/11/08 05:04:25;;;;;;;12.95;4.32;;;;;;;10.26;98.86;100544.69;4988678;28;20054;-64
2022/11/08 05:06:50;;;;;;;13.40;4.82;;;;;;;10.21;99.30;100541.78;4987434;28;20057;-64
2022/11/08 05:09:16;;;;;;;9.50;4.22;;;;;;;10.20;99.18;100537.38;4988054;28;20040;-65
2022/11/08 05:11:41;;;;;;;11.30;4.95;;;;;;;10.19;98.68;100537.59;4987036;28;20137;-63
2022/11/08 05:14:06;;;;;;;13.18;4.55;;;;;;;10.21;98.73;100522.59;4987479;28;20030;-62
2022/11/08 05:16:31;;;;;;;13.80;4.22;;;;;;;10.23;97.92;100525.91;4986639;28;20038;-66
2022/11/08 05:18:57;;;;;;;10.80;4.57;;;;;;;10.24;97.60;100519.41;4987344;28;20026;-64
2022/11/08 05:24:11;;;;;;;10.23;3.90;;;;;;;10.17;97.85;100531.53;4987971;28;20736;-63
2022/11/08 05:26:38;;;;;;;12.85;4.10;;;;;;;10.15;97.75;100531.78;4987507;28;20035;-62
2022/11/08 05:29:04;;;;;;;11.68;3.70;;;;;;;10.16;97.87;100529.84;4987937;28;20435;-63
2022/11/08 05:31:30;;;;;;;10.68;4.97;;;;;;;10.13;97.88;100531.16;4986326;28;20026;-63
2022/11/08 05:33:55;;;;;;;9.18;4.70;;;;;;;10.13;97.38;100520.16;4987097;28;20034;-63
2022/11/08 05:36:20;;;;;;;10.60;4.15;;;;;;;10.17;96.58;100521.38;4986033;28;20486;-63
2022/11/08 05:38:46;;;;;;;10.77;3.80;;;;;;;10.12;96.64;100510.28;4987265;28;20042;-63
2022/11/08 05:41:20;;;;;;;11.45;3.78;;;;;;;10.10;96.96;100495.97;4987577;28;20425;-65
2022/11/08 05:43:48;;;;;;;10.10;3.50;;;;;;;10.22;95.46;100505.03;4987916;28;20512;-63
2022/11/08 05:46:14;;;;;;;9.88;3.30;;;;;;;10.19;95.56;100505.53;4986892;28;20046;-62
2022/11/08 05:48:44;;;;;;;7.45;3.50;;;;;;;10.21;95.43;100503.38;4988114;28;20030;-63
2022/11/08 05:51:10;;;;;;;9.07;3.50;;;;;;;10.20;95.28;100507.19;4987150;28;20477;-62
2022/11/08 05:53:36;;;;;;;9.10;4.10;;;;;;;10.28;94.25;100503.28;4987687;28;20038;-62
2022/11/08 05:56:03;;;;;;;9.85;3.60;;;;;;;10.28;94.36;100506.88;4986379;28;20045;-66
2022/11/08 05:58:30;;;;;;;7.60;3.80;;;;;;;10.31;93.57;100508.31;4987580;28;20030;-62
2022/11/08 06:01:05;;;;;;;9.77;3.33;;;;;;;10.31;93.71;100503.66;4984791;28;20118;-62
2022/11/08 06:03:31;;;;;;;11.55;3.50;;;;;;;10.32;93.55;100499.84;4980464;28;20042;-65
2022/11/08 06:06:04;;;;;;;11.88;4.00;;;;;;;10.31;93.49;100500.91;4986440;28;20416;-65
2022/11/08 06:08:30;;;;;;;8.95;3.50;;;;;;;10.33;93.20;100496.00;4986702;28;20026;-62
2022/11/08 06:11:01;;;;;;;11.38;3.42;;;;;;;10.31;92.85;100509.16;4986436;28;20404;-65
2022/11/08 06:13:26;;;;;;;10.98;3.95;;;;;;;10.30;92.96;100488.25;4986833;28;20180;-63
2022/11/08 06:15:51;;;;;;;10.43;4.05;;;;;;;10.28;92.71;100490.41;4985308;28;20436;-63
2022/11/08 06:18:17;;;;;;;9.30;3.70;;;;;;;10.33;92.67;100489.69;4986098;28;20035;-62
2022/11/08 06:20:42;;;;;;;6.95;3.13;;;;;;;10.27;92.93;100493.38;4987380;28;20048;-64
2022/11/08 06:23:07;;;;;;;10.20;3.75;;;;;;;10.25;92.82;100488.13;4987232;28;20097;-62
2022/11/08 06:25:32;;;;;;;8.32;3.55;;;;;;;10.24;93.00;100489.22;4985666;28;20553;-63
2022/11/08 06:27:59;;;;;;;8.32;3.50;;;;;;;10.26;92.73;100491.72;4986736;28;20038;-63
2022/11/08 06:30:24;;;;;;;12.02;3.88;;;;;;;10.25;92.71;100504.59;4985322;28;20018;-63
2022/11/08 06:32:50;;;;;;;9.57;3.10;;;;;;;10.26;92.35;100506.28;4986509;28;20041;-66
2022/11/08 06:35:15;;;;;;;7.65;3.45;;;;;;;10.25;92.32;100503.78;4985765;28;20085;-64
2022/11/08 06:37:40;;;;;;;10.88;3.88;;;;;;;10.19;92.79;100494.56;4986188;28;20050;-64
2022/11/08 06:40:06;;;;;;;10.05;3.53;;;;;;;10.18;92.75;100503.00;4985542;28;20053;-62
2022/11/08 06:42:31;;;;;;;7.53;3.08;;;;;;;10.16;92.59;100499.66;4986180;28;20046;-63
2022/11/08 06:44:57;;;;;;;8.50;3.47;;;;;;;10.16;92.91;100499.66;4985507;28;20365;-63
2022/11/08 06:47:22;;;;;;;8.63;3.45;;;;;;;10.12;93.05;100502.88;4982008;28;20050;-63
2022/11/08 06:49:47;;;;;;;10.65;3.85;;;;;;;10.12;92.90;100499.28;4984977;28;20461;-64
2022/11/08 06:52:12;;;;;;;9.75;3.30;;;;;;;10.15;92.36;100498.84;4986360;28;20038;-63
2022/11/08 06:54:38;;;;;;;10.18;3.92;;;;;;;10.15;92.67;100498.84;4986732;28;20061;-64
2022/11/08 06:57:03;;;;;;;7.30;3.97;;;;;;;10.19;92.18;100494.56;4987404;28;20042;-64
2022/11/08 06:59:28;;;;;;;9.40;3.80;;;;;;;10.23;91.53;100498.47;4986391;28;20041;-63
2022/11/08 07:01:54;;;;;;;11.10;4.35;;;;;;;10.20;92.17;100495.38;4984600;28;20080;-62
2022/11/08 07:04:20;;;;;;;9.35;3.60;;;;;;;10.15;92.18;100504.31;4985045;28;20038;-65
2022/11/08 07:06:45;;;;;;;9.88;4.25;;;;;;;10.17;92.17;100506.81;4987093;28;20046;-62
2022/11/08 07:09:11;;;;;;;9.95;4.13;;;;;;;10.22;91.79;100504.19;4985917;28;20054;-64
2022/11/08 07:11:37;;;;;;;8.35;3.50;;;;;;;10.24;91.35;100507.56;4986302;28;20065;-63
2022/11/08 07:14:02;;;;;;;10.23;4.30;;;;;;;10.28;91.51;100509.59;4981559;28;20130;-63
2022/11/08 07:16:27;;;;;;;7.20;3.70;;;;;;;10.28;91.25;100515.09;4984643;28;20046;-63
2022/11/08 07:18:54;;;;;;;10.13;3.42;;;;;;;10.32;91.14;100521.78;4987074;28;20109;-62
2022/11/08 07:21:20;;;;;;;10.85;4.15;;;;;;;10.39;90.21;100506.06;4987132;28;20031;-63
2022/11/08 07:23:47;;;;;;;9.95;3.97;;;;;;;10.40;90.21;100512.38;4986823;28;20034;-63
2022/11/08 07:26:12;;;;;;;7.35;3.50;;;;;;;10.48;89.59;100511.19;4986556;28;20532;-62
2022/11/08 07:28:38;;;;;;;8.70;3.67;;;;;;;10.49;89.40;100505.47;4983769;28;20049;-62
2022/11/08 07:31:04;;;;;;;7.63;3.50;;;;;;;10.50;90.02;100500.81;4986211;28;20030;-62
2022/11/08 07:33:30;;;;;;;9.60;3.70;;;;;;;10.52;89.58;100504.13;4986259;28;20105;-62
2022/11/08 07:35:55;;;;;;;8.50;3.35;;;;;;;10.52;89.88;100493.16;4985313;28;20141;-63
2022/11/08 07:38:21;;;;;;;9.10;4.00;;;;;;;10.54;89.51;100499.22;4986073;28;20018;-63
2022/11/08 07:40:46;;;;;;;6.93;3.13;;;;;;;10.55;88.82;100503.66;4987136;28;20042;-66
2022/11/08 07:43:12;;;;;;;9.48;3.88;;;;;;;10.56;89.16;100491.59;4989742;28;20441;-64
2022/11/08 07:45:37;;;;;;;10.50;3.65;;;;;;;10.59;88.64;100488.38;4988280;28;20038;-64
2022/11/08 07:48:05;;;;;;;8.73;3.42;;;;;;;10.63;88.32;100487.66;4989987;28;20080;-64
2022/11/08 07:50:31;;;;;;;;;;;;;;;10.69;88.86;100491.34;4990790;28;20130;-64
2022/11/08 07:52:57;;;;;;;10.20;4.63;;;;;;;10.68;88.41;100488.84;4989898;28;20702;-63
2022/11/08 07:55:23;;;;;;;9.23;3.53;;;;;;;10.72;87.86;100492.78;4989559;28;20041;-63
2022/11/08 07:57:48;;;;;;;10.98;3.97;;;;;;;10.75;87.86;100487.66;4990295;28;20038;-66
2022/11/08 08:00:14;;;;;;;9.73;3.75;;;;;;;10.76;87.58;100481.09;4988933;28;20373;-63
2022/11/08 08:02:39;;;;;;;9.68;3.63;;;;;;;10.85;86.91;100489.81;4987577;28;20037;-63
2022/11/08 08:05:05;;;;;;;8.90;3.47;;;;;;;10.85;87.28;100490.63;4987650;28;20646;-66
2022/11/08 08:07:30;;;;;;;10.02;3.88;;;;;;;10.90;87.17;100490.75;4988341;28;20022;-62
2022/11/08 08:09:55;;;;;;;8.20;3.40;;;;;;;10.96;86.17;100494.44;4989154;28;20018;-63
2022/11/08 08:12:21;;;;;;;9.43;3.53;;;;;;;11.03;86.04;100491.53;4989174;28;20426;-66
2022/11/08 08:14:46;;;;;;;7.47;3.45;;;;;;;11.14;85.69;100483.25;4988356;28;20030;-65
2022/11/08 08:17:12;;;;;;;9.52;3.83;;;;;;;11.19;84.87;100482.53;4986437;28;20030;-63
2022/11/08 08:19:37;;;;;;;9.57;3.50;;;;;;;11.21;85.57;100490.56;4988661;28;20034;-66
2022/11/08 08:22:02;;;;;;;8.43;3.60;;;;;;;11.24;85.35;100487.28;4989239;28;20034;-63
2022/11/08 08:24:27;;;;;;;9.07;3.63;;;;;;;11.28;84.52;100483.00;4987281;28;20054;-63
2022/11/08 08:26:53;;;;;;;8.15;3.67;;;;;;;11.31;84.17;100499.84;4988509;28;20413;-64
2022/11/08 08:29:19;;;;;;;10.43;3.50;;;;;;;11.34;84.95;100493.00;4987448;28;20061;-66
2022/11/08 08:31:44;;;;;;;9.93;3.42;;;;;;;11.43;83.68;100506.13;4988213;28;20035;-63
2022/11/08 08:34:09;;;;;;;9.10;3.08;;;;;;;11.51;83.27;100502.16;4979215;28;20030;-66
2022/11/08 08:36:34;;;;;;;7.70;3.40;;;;;;;11.61;83.57;100501.53;4983865;28;20045;-66
2022/11/08 08:39:00;;;;;;;9.70;3.65;;;;;;;11.69;81.97;100521.19;4988245;28;20113;-63
2022/11/08 08:41:25;;;;;;;7.43;3.42;;;;;;;11.83;81.04;100523.69;4987761;28;20120;-63
2022/11/08 08:43:50;;;;;;;7.95;3.08;;;;;;;12.05;81.18;100523.81;4987250;28;20034;-63
2022/11/08 08:46:16;;;;;;;6.53;3.08;;;;;;;12.28;79.01;100514.56;4987908;28;20034;-63
2022/11/08 08:48:41;;;;;;;6.63;2.72;;;;;;;12.54;77.17;100504.78;4988352;28;20081;-62
2022/11/08 08:51:06;;;;;;;7.20;2.40;;;;;;;12.85;75.84;100501.38;4988464;28;20034;-65
2022/11/08 08:53:31;;;;;;;5.60;2.58;;;;;;;12.96;75.08;100491.34;4984413;28;20038;-64
2022/11/08 08:55:57;;;;;;;5.07;2.53;;;;;;;13.01;74.34;100504.34;4988839;28;20469;-64
2022/11/08 08:58:22;;;;;;;5.72;2.50;;;;;;;13.00;73.42;100478.72;4988126;28;20031;-63
2022/11/08 09:00:48;;;;;;;6.43;2.80;;;;;;;13.06;74.26;100474.91;4987823;28;20053;-63
2022/11/08 09:03:14;;;;;;;7.32;2.85;;;;;;;13.11;73.52;100476.91;4987531;28;20596;-63
2022/11/08 09:05:42;;;;;;;7.45;2.60;;;;;;;13.09;73.80;100479.09;4996682;28;20034;-64
2022/11/08 09:08:08;;;;;;;7.50;3.05;;;;;;;13.09;73.14;100479.09;4987953;28;20037;-63
2022/11/08 09:10:34;;;;;;;4.45;2.50;;;;;;;13.02;73.86;100475.69;4988835;28;20138;-64
2022/11/08 09:13:00;;;;;;;6.13;2.60;;;;;;;13.03;74.36;100469.06;4987360;28;20113;-63
2022/11/08 09:15:26;;;;;;;5.03;2.47;;;;;;;13.17;73.17;100464.84;4987781;28;20376;-63
2022/11/08 09:17:55;;;;;;;6.05;2.22;;;;;;;13.41;73.01;100460.75;4988738;28;20034;-64
2022/11/08 09:20:21;;;;;;;6.78;2.17;;;;;;;13.80;71.50;100479.94;4987575;28;20473;-63
2022/11/08 09:22:46;;;;;;;8.55;2.45;;;;;;;13.85;71.36;100476.41;4987016;28;20140;-63
2022/11/08 09:25:11;;;;;;;6.60;2.55;;;;;;;13.69;70.77;100473.50;4987492;28;20038;-64
2022/11/08 09:27:37;;;;;;;6.78;2.47;;;;;;;13.55;72.00;100468.63;4988235;28;20113;-63
2022/11/08 09:30:03;;;;;;;8.05;2.45;;;;;;;13.49;72.17;100470.50;4987250;28;20488;-63
2022/11/08 09:32:28;;;;;;;5.88;2.17;;;;;;;13.39;72.56;100468.47;4986548;28;20477;-63
2022/11/08 09:34:54;;;;;;;5.43;2.57;;;;;;;13.32;71.75;100478.84;4987865;28;20030;-63
2022/11/08 09:37:21;;;;;;;6.00;2.60;;;;;;;13.29;73.11;100462.00;4988004;28;20929;-65
2022/11/08 09:39:47;;;;;;;6.85;2.42;;;;;;;13.27;72.80;100473.28;4988074;28;20117;-63
2022/11/08 09:42:27;;;;;;;8.82;2.42;;;;;;;13.31;72.83;100482.72;4987836;28;20169;-63
2022/11/08 09:45:14;;;;;;;8.15;2.53;;;;;;;13.42;71.94;100476.22;4986224;28;20061;-63
2022/11/08 09:47:43;;;;;;;7.28;2.55;;;;;;;13.66;71.49;100471.22;4986791;28;20099;-64
2022/11/08 09:50:24;;;;;;;4.43;2.10;;;;;;;13.88;71.81;100471.16;4987283;28;20038;-64
2022/11/08 09:53:16;;;;;;;6.03;2.50;;;;;;;13.97;71.44;100453.03;4988000;28;20461;-63
2022/11/08 09:56:20;;;;;;;5.65;2.65;;;;;;;13.86;71.62;100478.06;4987505;28;20369;-63
2022/11/08 09:59:00;;;;;;;6.65;2.40;;;;;;;13.86;70.58;100484.41;4982833;28;20092;-63
2022/11/08 10:01:29;;;;;;;5.22;1.92;;;;;;;13.84;70.90;100486.59;4986997;28;20500;-62
2022/11/08 10:03:58;;;;;;;6.60;2.50;;;;;;;13.91;70.57;100484.47;4979393;28;20053;-63
2022/11/08 10:06:55;;;;;;;5.90;2.10;;;;;;;14.07;70.36;100485.44;4987190;28;20378;-65
2022/11/08 10:09:29;;;;;;;6.07;3.20;;;;;;;14.17;70.11;100484.69;4986797;28;20124;-63
2022/11/08 10:12:13;;;;;;;6.38;2.30;;;;;;;14.58;68.74;100485.03;4987501;28;20026;-62
2022/11/08 10:14:55;;;;;;;4.38;2.15;;;;;;;14.74;68.54;100486.78;4986669;28;20046;-63
2022/11/08 10:17:33;;;;;;;6.20;2.33;;;;;;;14.73;67.79;100485.13;4986808;28;20034;-65
2022/11/08 10:20:19;;;;;;;6.95;2.33;;;;;;;15.30;66.87;100490.66;4988766;28;20057;-63
2022/11/08 10:23:01;;;;;;;5.65;2.15;;;;;;;15.70;64.79;100488.31;4986567;28;20034;-62
2022/11/08 10:25:37;;;;;;;5.70;2.30;;;;;;;15.68;64.54;100496.06;4984313;28;20473;-62
2022/11/08 10:28:05;;;;;;;5.30;2.42;;;;;;;15.42;64.51;100495.97;4982592;28;20026;-64
2022/11/08 10:30:37;;;;;;;4.53;2.10;;;;;;;15.20;65.19;100493.38;4986456;28;20037;-62
2022/11/08 10:33:15;;;;;;;6.22;1.95;;;;;;;14.96;66.14;100493.00;4987538;28;20057;-63
2022/11/08 10:35:45;;;;;;;5.93;2.22;;;;;;;14.70;65.96;100492.03;4986888;28;20090;-62
2022/11/08 10:38:20;;;;;;;5.80;2.15;;;;;;;14.57;67.24;100499.94;4986368;28;20079;-63
2022/11/08 10:40:56;;;;;;;6.57;2.30;;;;;;;14.48;69.50;100497.66;4987824;28;20025;-62
2022/11/08 10:43:29;;;;;;;4.90;2.30;;;;;;;14.37;68.12;100498.66;4986832;28;20092;-65
2022/11/08 10:45:54;;;;;;;4.60;1.88;;;;;;;14.30;68.34;100500.81;4985744;28;20072;-62
2022/11/08 10:48:20;;;;;;;5.35;1.95;;;;;;;14.23;68.72;100500.19;4986669;28;20030;-63
2022/11/08 10:50:49;;;;;;;5.57;2.08;;;;;;;14.27;68.26;100506.88;4987525;28;20076;-64
2022/11/08 10:53:21;;;;;;;3.90;2.00;;;;;;;14.31;68.73;100496.97;4987114;28;20027;-63
2022/11/08 10:55:49;;;;;;;6.97;2.50;;;;;;;14.27;68.78;100495.81;4987428;28;20077;-62
2022/11/08 10:58:44;;;;;;;6.32;2.08;;;;;;;14.38;69.58;100489.28;4982077;28;20034;-65
2022/11/08 11:01:32;;;;;;;5.07;2.03;;;;;;;14.42;68.23;100482.13;4985703;28;20394;-64
2022/11/08 11:04:07;;;;;;;4.65;2.00;;;;;;;14.77;66.97;100475.19;4986642;28;20485;-65
2022/11/08 11:06:33;;;;;;;6.07;2.13;;;;;;;14.84;66.62;100470.25;4986673;28;20485;-64
2022/11/08 11:09:01;;;;;;;6.32;2.13;;;;;;;14.74;66.53;100481.25;4987053;28;20027;-62
2022/11/08 11:11:37;;;;;;;3.50;1.90;;;;;;;14.72;66.81;100469.63;4987223;28;20019;-63
2022/11/08 11:14:11;;;;;;;4.63;2.22;;;;;;;14.60;66.87;100463.47;4986001;28;20034;-63
2022/11/08 11:16:36;;;;;;;5.28;2.10;;;;;;;14.51;67.03;100463.16;4987207;28;20485;-63
2022/11/08 11:19:04;;;;;;;8.07;2.10;;;;;;;14.43;66.97;100461.66;4990726;28;20042;-63
2022/11/08 11:21:36;;;;;;;7.38;2.90;;;;;;;14.39;67.61;100455.00;4990665;28;20567;-63
2022/11/08 11:24:11;;;;;;;10.38;3.00;;;;;;;14.38;68.15;100469.09;4990689;28;20022;-62
2022/11/08 11:26:56;;;;;;;10.18;2.28;;;;;;;14.42;68.92;100461.94;4990442;28;20030;-63
2022/11/08 11:29:33;;;;;;;5.82;2.50;;;;;;;14.40;69.01;100456.69;4989668;28;20035;-62
2022/11/08 11:32:23;;;;;;;5.63;2.20;;;;;;;14.52;68.33;100443.53;4989717;28;20113;-63
2022/11/08 11:34:56;;;;;;;5.40;2.25;;;;;;;14.51;67.52;100435.53;4990826;28;20026;-64
2022/11/08 11:37:47;;;;;;;6.88;2.60;;;;;;;14.61;67.37;100432.00;4989947;28;20038;-64
2022/11/08 11:40:37;;;;;;;5.38;2.40;;;;;;;14.70;67.13;100439.50;4986961;28;20034;-65
2022/11/08 11:43:09;;;;;;;7.50;3.92;;;;;;;14.92;66.18;100428.28;4990215;28;20052;-67